createdAt,value
2017-09-18T00:00:59.411Z,9.59
2017-09-18T00:02:12.952Z,9.56
2017-09-18T00:03:26.862Z,9.54
2017-09-18T00:04:41.076Z,9.51
2017-09-18T00:05:55.154Z,9.47
2017-09-18T00:07:08.880Z,9.44
2017-09-18T00:08:22.432Z,9.38
2017-09-18T00:09:36.705Z,9.36
2017-09-18T00:10:50.813Z,9.36
2017-09-18T00:12:04.703Z,9.37
2017-09-18T00:13:18.556Z,9.38
2017-09-18T00:14:32.077Z,9.38
2017-09-18T00:15:45.915Z,9.39
2017-09-18T00:16:59.422Z,9.4
2017-09-18T00:18:13.916Z,9.41
2017-09-18T00:19:27.507Z,9.43
2017-09-18T00:20:41.417Z,9.43
2017-09-18T00:21:55.192Z,9.44
2017-09-18T00:23:09.406Z,9.44
2017-09-18T00:24:23.263Z,9.47
2017-09-18T00:25:37.183Z,9.49
2017-09-18T00:26:51.716Z,9.51
2017-09-18T00:28:05.642Z,9.51
2017-09-18T00:29:19.965Z,9.51
2017-09-18T00:30:33.880Z,9.51
2017-09-18T00:31:47.862Z,9.49
2017-09-18T00:33:01.384Z,9.48
2017-09-18T00:34:15.308Z,9.47
2017-09-18T00:35:44.024Z,9.46
2017-09-18T00:36:57.864Z,9.45
2017-09-18T00:38:11.417Z,9.44
2017-09-18T00:39:24.961Z,9.43
2017-09-18T00:40:39.390Z,9.43
2017-09-18T00:41:53.702Z,9.42
2017-09-18T00:43:08.243Z,9.41
2017-09-18T00:44:22.132Z,9.39
2017-09-18T00:45:35.682Z,9.39
2017-09-18T00:46:49.635Z,9.4
2017-09-18T00:48:03.165Z,9.43
2017-09-18T00:49:17.469Z,9.46
2017-09-18T00:50:31.042Z,9.48
2017-09-18T00:51:44.590Z,9.48
2017-09-18T00:52:58.388Z,9.48
2017-09-18T00:54:12.258Z,9.47
2017-09-18T00:55:26.143Z,9.46
2017-09-18T00:56:40.349Z,9.47
2017-09-18T00:57:54.099Z,9.49
2017-09-18T00:59:07.689Z,9.47
2017-09-18T01:00:21.220Z,9.49
2017-09-18T01:01:35.480Z,9.5
2017-09-18T01:02:49.169Z,9.51
2017-09-18T01:04:03.102Z,9.51
2017-09-18T01:05:17.458Z,9.51
2017-09-18T01:06:30.991Z,9.51
2017-09-18T01:07:44.839Z,9.5
2017-09-18T01:08:58.961Z,9.49
2017-09-18T01:10:12.495Z,9.49
2017-09-18T01:11:26.030Z,9.5
2017-09-18T01:12:39.571Z,9.5
2017-09-18T01:13:53.422Z,9.5
2017-09-18T01:15:06.983Z,9.5
2017-09-18T01:16:20.819Z,9.52
2017-09-18T01:17:34.401Z,9.51
2017-09-18T01:18:48.020Z,9.52
2017-09-18T01:20:02.240Z,9.53
2017-09-18T01:21:15.772Z,9.53
2017-09-18T01:22:29.289Z,9.53
2017-09-18T01:23:43.175Z,9.52
2017-09-18T01:24:56.711Z,9.52
2017-09-18T01:26:10.563Z,9.51
2017-09-18T01:27:24.085Z,9.5
2017-09-18T01:28:37.611Z,9.49
2017-09-18T01:29:51.330Z,9.48
2017-09-18T01:31:04.852Z,9.46
2017-09-18T01:32:18.386Z,9.44
2017-09-18T01:33:32.239Z,9.43
2017-09-18T01:34:45.982Z,9.42
2017-09-18T01:35:59.481Z,9.43
2017-09-18T01:37:13.326Z,9.43
2017-09-18T01:38:26.927Z,9.43
2017-09-18T01:39:40.469Z,9.43
2017-09-18T01:40:54.010Z,9.42
2017-09-18T01:42:07.790Z,9.41
2017-09-18T01:43:21.368Z,9.39
2017-09-18T01:44:35.203Z,9.38
2017-09-18T01:45:48.726Z,9.38
2017-09-18T01:47:02.246Z,9.37
2017-09-18T01:48:15.794Z,9.38
2017-09-18T01:49:29.384Z,9.38
2017-09-18T01:50:43.236Z,9.39
2017-09-18T01:51:56.848Z,9.38
2017-09-18T01:53:10.419Z,9.38
2017-09-18T01:54:24.177Z,9.39
2017-09-18T01:55:37.752Z,9.38
2017-09-18T01:56:51.565Z,9.37
2017-09-18T01:58:05.309Z,9.37
2017-09-18T01:59:18.824Z,9.37
2017-09-18T02:00:32.709Z,9.35
2017-09-18T02:01:46.271Z,9.35
2017-09-18T02:03:01.242Z,9.35
2017-09-18T02:04:14.777Z,9.37
2017-09-18T02:05:28.524Z,9.36
2017-09-18T02:06:42.065Z,9.37
2017-09-18T02:07:55.618Z,9.35
2017-09-18T02:09:09.439Z,9.32
2017-09-18T02:10:23.670Z,9.3
2017-09-18T02:11:38.207Z,9.28
2017-09-18T02:12:51.777Z,9.27
2017-09-18T02:14:05.654Z,9.26
2017-09-18T02:15:19.507Z,9.25
2017-09-18T02:16:33.517Z,9.23
2017-09-18T02:17:47.044Z,9.21
2017-09-18T02:19:00.560Z,9.2
2017-09-18T02:20:14.065Z,9.19
2017-09-18T02:21:27.915Z,9.17
2017-09-18T02:22:41.765Z,9.14
2017-09-18T02:23:55.753Z,9.12
2017-09-18T02:25:09.316Z,9.1
2017-09-18T02:26:22.859Z,9.08
2017-09-18T02:27:36.696Z,9.05
2017-09-18T02:28:50.230Z,9.04
2017-09-18T02:30:03.756Z,9.04
2017-09-18T02:31:17.816Z,9.02
2017-09-18T02:32:31.601Z,8.99
2017-09-18T02:33:45.629Z,8.94
2017-09-18T02:34:59.259Z,8.92
2017-09-18T02:36:12.789Z,8.9
2017-09-18T02:37:26.439Z,8.87
2017-09-18T02:38:40.006Z,8.82
2017-09-18T02:39:54.363Z,8.81
2017-09-18T02:41:08.215Z,8.79
2017-09-18T02:42:21.741Z,8.77
2017-09-18T02:43:35.532Z,8.73
2017-09-18T02:44:49.382Z,8.7
2017-09-18T02:46:03.207Z,8.67
2017-09-18T02:47:16.717Z,8.65
2017-09-18T02:48:30.238Z,8.66
2017-09-18T02:49:43.733Z,8.65
2017-09-18T02:50:57.444Z,8.68
2017-09-18T02:52:11.776Z,8.69
2017-09-18T02:53:25.582Z,8.71
2017-09-18T02:54:39.108Z,8.73
2017-09-18T02:55:52.624Z,8.74
2017-09-18T02:57:06.243Z,8.76
2017-09-18T02:58:20.339Z,8.76
2017-09-18T02:59:33.882Z,8.76
2017-09-18T03:00:47.475Z,8.78
2017-09-18T03:02:01.010Z,8.81
2017-09-18T03:03:14.571Z,8.84
2017-09-18T03:04:28.415Z,8.85
2017-09-18T03:05:42.271Z,8.88
2017-09-18T03:06:55.900Z,8.89
2017-09-18T03:08:09.761Z,8.92
2017-09-18T03:09:23.488Z,8.93
2017-09-18T03:10:38.532Z,8.97
2017-09-18T03:11:52.416Z,9.02
2017-09-18T03:13:05.998Z,9.06
2017-09-18T03:14:19.508Z,9.1
2017-09-18T03:15:33.254Z,9.12
2017-09-18T03:16:47.493Z,9.14
2017-09-18T03:18:01.151Z,9.18
2017-09-18T03:19:14.728Z,9.21
2017-09-18T03:20:28.313Z,9.22
2017-09-18T03:21:41.885Z,9.28
2017-09-18T03:22:55.707Z,9.32
2017-09-18T03:24:09.229Z,9.36
2017-09-18T03:25:22.844Z,9.39
2017-09-18T03:26:36.377Z,9.44
2017-09-18T03:27:49.931Z,9.5
2017-09-18T03:29:03.776Z,9.55
2017-09-18T03:30:17.673Z,9.57
2017-09-18T03:31:31.347Z,9.58
2017-09-18T03:32:44.875Z,9.58
2017-09-18T03:33:58.455Z,9.59
2017-09-18T03:35:12.293Z,9.58
2017-09-18T03:36:26.174Z,9.59
2017-09-18T03:37:39.999Z,9.61
2017-09-18T03:38:53.602Z,9.62
2017-09-18T03:40:07.136Z,9.64
2017-09-18T03:41:21.985Z,9.64
2017-09-18T03:42:35.502Z,9.67
2017-09-18T03:43:49.239Z,9.66
2017-09-18T03:45:02.765Z,9.67
2017-09-18T03:46:16.625Z,9.67
2017-09-18T03:47:30.521Z,9.69
2017-09-18T03:48:44.258Z,9.68
2017-09-18T03:49:57.777Z,9.7
2017-09-18T03:51:11.838Z,9.72
2017-09-18T03:52:25.697Z,9.73
2017-09-18T03:53:39.840Z,9.74
2017-09-18T03:54:53.405Z,9.76
2017-09-18T03:56:07.157Z,9.75
2017-09-18T03:57:20.669Z,9.76
2017-09-18T03:58:34.306Z,9.76
2017-09-18T03:59:48.523Z,9.77
2017-09-18T04:01:02.515Z,9.77
2017-09-18T04:02:16.404Z,9.77
2017-09-18T04:03:29.948Z,9.76
2017-09-18T04:04:43.537Z,9.77
2017-09-18T04:05:57.386Z,9.77
2017-09-18T04:07:11.024Z,9.76
2017-09-18T04:08:24.927Z,9.75
2017-09-18T04:09:38.498Z,9.74
2017-09-18T04:10:52.301Z,9.71
2017-09-18T04:12:06.213Z,9.7
2017-09-18T04:13:19.740Z,9.68
2017-09-18T04:14:33.477Z,9.66
2017-09-18T04:15:47.020Z,9.65
2017-09-18T04:17:00.539Z,9.66
2017-09-18T04:18:14.709Z,9.66
2017-09-18T04:19:28.302Z,9.67
2017-09-18T04:20:41.879Z,9.68
2017-09-18T04:21:55.413Z,9.68
2017-09-18T04:23:08.988Z,9.68
2017-09-18T04:24:22.873Z,9.69
2017-09-18T04:25:36.407Z,9.7
2017-09-18T04:26:50.183Z,9.71
2017-09-18T04:28:04.326Z,9.68
2017-09-18T04:29:17.972Z,9.66
2017-09-18T04:30:32.452Z,9.63
2017-09-18T04:31:46.116Z,9.62
2017-09-18T04:32:59.736Z,9.59
2017-09-18T04:34:13.286Z,9.59
2017-09-18T04:35:26.886Z,9.57
2017-09-18T04:36:41.044Z,9.58
2017-09-18T04:37:54.702Z,9.61
2017-09-18T04:39:08.351Z,9.64
2017-09-18T04:40:21.953Z,9.68
2017-09-18T04:41:35.846Z,9.7
2017-09-18T04:42:49.830Z,9.72
2017-09-18T04:44:03.354Z,9.72
2017-09-18T04:45:17.208Z,9.73
2017-09-18T04:46:30.743Z,9.75
2017-09-18T04:47:44.516Z,9.75
2017-09-18T04:48:58.090Z,9.77
2017-09-18T04:50:11.632Z,9.77
2017-09-18T04:51:25.255Z,9.79
2017-09-18T04:52:38.893Z,9.81
2017-09-18T04:53:52.606Z,9.84
2017-09-18T04:55:06.800Z,9.86
2017-09-18T04:56:20.388Z,9.87
2017-09-18T04:57:33.910Z,9.88
2017-09-18T04:58:47.488Z,9.88
2017-09-18T05:00:01.301Z,9.9
2017-09-18T05:01:16.005Z,9.91
2017-09-18T05:02:29.551Z,9.93
2017-09-18T05:03:43.614Z,9.97
2017-09-18T05:04:57.156Z,9.99
2017-09-18T05:06:10.833Z,10.02
2017-09-18T05:07:24.769Z,10.04
2017-09-18T05:08:38.314Z,10.05
2017-09-18T05:09:52.612Z,10.09
2017-09-18T05:11:06.476Z,10.12
2017-09-18T05:12:20.056Z,10.16
2017-09-18T05:13:33.917Z,10.23
2017-09-18T05:14:47.538Z,10.26
2017-09-18T05:16:01.666Z,10.31
2017-09-18T05:17:15.553Z,10.35
2017-09-18T05:18:29.072Z,10.38
2017-09-18T05:19:43.870Z,10.44
2017-09-18T05:20:57.460Z,10.47
2017-09-18T05:22:11.198Z,10.5
2017-09-18T05:23:24.853Z,10.54
2017-09-18T05:24:38.973Z,10.56
2017-09-18T05:25:54.005Z,10.59
2017-09-18T05:27:07.710Z,10.61
2017-09-18T05:28:21.414Z,10.63
2017-09-18T05:29:34.964Z,10.65
2017-09-18T05:30:48.688Z,10.68
2017-09-18T05:32:03.235Z,10.7
2017-09-18T05:33:16.826Z,10.74
2017-09-18T05:34:30.384Z,10.8
2017-09-18T05:35:44.388Z,10.84
2017-09-18T05:36:58.631Z,10.88
2017-09-18T05:38:13.325Z,10.9
2017-09-18T05:39:27.117Z,10.91
2017-09-18T05:40:40.776Z,10.93
2017-09-18T05:41:54.453Z,10.96
2017-09-18T05:43:08.140Z,10.98
2017-09-18T05:44:22.063Z,11.04
2017-09-18T05:45:35.904Z,11.07
2017-09-18T05:46:49.569Z,11.09
2017-09-18T05:48:03.285Z,11.14
2017-09-18T05:49:16.926Z,11.18
2017-09-18T05:50:30.832Z,11.22
2017-09-18T05:51:44.674Z,11.28
2017-09-18T05:52:58.618Z,11.32
2017-09-18T05:54:12.705Z,11.36
2017-09-18T05:55:26.472Z,11.38
2017-09-18T05:56:40.726Z,11.41
2017-09-18T05:57:54.354Z,11.45
2017-09-18T05:59:08.038Z,11.49
2017-09-18T06:00:22.819Z,11.53
2017-09-18T06:01:36.415Z,11.56
2017-09-18T06:02:50.293Z,11.59
2017-09-18T06:04:04.413Z,11.64
2017-09-18T06:05:17.955Z,11.66
2017-09-18T06:06:31.481Z,11.73
2017-09-18T06:07:44.990Z,11.77
2017-09-18T06:08:58.817Z,11.78
2017-09-18T06:10:12.774Z,11.81
2017-09-18T06:11:26.665Z,11.83
2017-09-18T06:12:40.851Z,11.85
2017-09-18T06:13:54.425Z,11.9
2017-09-18T06:15:08.560Z,11.97
2017-09-18T06:16:22.124Z,12.04
2017-09-18T06:17:35.655Z,12.14
2017-09-18T06:18:49.413Z,12.21
2017-09-18T06:20:02.967Z,12.26
2017-09-18T06:21:16.829Z,12.31
2017-09-18T06:22:30.650Z,12.36
2017-09-18T06:23:44.728Z,12.41
2017-09-18T06:24:58.634Z,12.47
2017-09-18T06:26:12.489Z,12.51
2017-09-18T06:27:26.732Z,12.55
2017-09-18T06:28:40.288Z,12.56
2017-09-18T06:29:54.003Z,12.52
2017-09-18T06:31:07.606Z,12.52
2017-09-18T06:32:21.239Z,12.55
2017-09-18T06:33:35.617Z,12.57
2017-09-18T06:34:49.329Z,12.56
2017-09-18T06:36:02.864Z,12.61
2017-09-18T06:37:16.463Z,12.59
2017-09-18T06:38:30.084Z,12.61
2017-09-18T06:39:44.332Z,12.62
2017-09-18T06:40:58.262Z,12.63
2017-09-18T06:42:12.148Z,12.63
2017-09-18T06:43:26.476Z,12.62
2017-09-18T06:44:40.113Z,12.61
2017-09-18T06:45:53.977Z,12.61
2017-09-18T06:47:07.528Z,12.61
2017-09-18T06:48:21.080Z,12.62
2017-09-18T06:49:34.633Z,12.64
2017-09-18T06:50:48.168Z,12.69
2017-09-18T06:52:02.203Z,12.71
2017-09-18T06:53:15.727Z,12.75
2017-09-18T06:54:29.322Z,12.81
2017-09-18T06:55:42.867Z,12.88
2017-09-18T06:56:57.053Z,12.92
2017-09-18T06:58:11.270Z,12.98
2017-09-18T06:59:25.135Z,13.03
2017-09-18T07:00:38.683Z,13.07
2017-09-18T07:01:52.259Z,13.1
2017-09-18T07:03:05.792Z,13.12
2017-09-18T07:04:19.637Z,13.14
2017-09-18T07:05:33.412Z,13.13
2017-09-18T07:06:46.954Z,13.17
2017-09-18T07:08:00.852Z,13.19
2017-09-18T07:09:14.401Z,13.25
2017-09-18T07:10:28.317Z,13.28
2017-09-18T07:11:41.886Z,13.34
2017-09-18T07:12:55.452Z,13.37
2017-09-18T07:14:09.379Z,13.41
2017-09-18T07:15:23.076Z,13.42
2017-09-18T07:16:37.791Z,13.43
2017-09-18T07:17:51.617Z,13.49
2017-09-18T07:19:05.164Z,13.53
2017-09-18T07:20:18.691Z,13.58
2017-09-18T07:21:32.532Z,13.63
2017-09-18T07:22:46.742Z,13.67
2017-09-18T07:24:00.337Z,13.74
2017-09-18T07:25:13.871Z,13.83
2017-09-18T07:26:27.633Z,13.89
2017-09-18T07:27:42.009Z,13.96
2017-09-18T07:28:55.822Z,14.04
2017-09-18T07:30:09.888Z,14.11
2017-09-18T07:31:23.569Z,14.14
2017-09-18T07:32:37.748Z,14.19
2017-09-18T07:33:51.295Z,14.22
2017-09-18T07:35:05.316Z,14.26
2017-09-18T07:36:19.033Z,14.32
2017-09-18T07:37:32.657Z,14.38
2017-09-18T07:38:46.779Z,14.45
2017-09-18T07:40:00.686Z,14.54
2017-09-18T07:41:14.692Z,14.63
2017-09-18T07:42:28.254Z,14.72
2017-09-18T07:43:41.808Z,14.77
2017-09-18T07:44:55.379Z,14.82
2017-09-18T07:46:08.973Z,14.85
2017-09-18T07:47:23.388Z,14.87
2017-09-18T07:48:36.953Z,14.86
2017-09-18T07:49:50.513Z,14.87
2017-09-18T07:51:04.097Z,14.86
2017-09-18T07:52:17.884Z,14.86
2017-09-18T07:53:31.734Z,14.88
2017-09-18T07:54:45.282Z,14.93
2017-09-18T07:55:58.840Z,14.96
2017-09-18T07:57:12.940Z,15.02
2017-09-18T07:58:26.560Z,15.07
2017-09-18T07:59:40.416Z,15.13
2017-09-18T08:00:54.291Z,15.19
2017-09-18T08:02:08.268Z,15.24
2017-09-18T08:03:21.900Z,15.3
2017-09-18T08:04:35.468Z,15.32
2017-09-18T08:05:49.454Z,15.38
2017-09-18T08:07:03.451Z,15.45
2017-09-18T08:12:04.713Z,15.61
2017-09-18T08:13:19.201Z,15.62
2017-09-18T08:14:33.211Z,15.63
2017-09-18T08:15:46.905Z,15.66
2017-09-18T08:17:00.783Z,15.68
2017-09-18T08:18:15.352Z,15.7
2017-09-18T08:19:29.127Z,15.73
2017-09-18T08:20:42.661Z,15.72
2017-09-18T08:21:56.509Z,15.7
2017-09-18T08:23:10.115Z,15.72
2017-09-18T08:24:23.834Z,15.75
2017-09-18T08:25:37.342Z,15.77
2017-09-18T08:26:51.196Z,15.81
2017-09-18T08:28:04.737Z,15.84
2017-09-18T08:29:18.217Z,15.93
2017-09-18T08:30:32.068Z,16.04
2017-09-18T08:31:46.115Z,16.12
2017-09-18T08:32:59.826Z,16.17
2017-09-18T08:34:13.325Z,16.2
2017-09-18T08:35:26.843Z,16.25
2017-09-18T08:36:40.660Z,16.27
2017-09-18T08:37:54.209Z,16.28
2017-09-18T08:39:08.229Z,16.27
2017-09-18T08:40:21.815Z,16.24
2017-09-18T08:41:35.356Z,16.22
2017-09-18T08:42:49.865Z,16.18
2017-09-18T08:44:03.372Z,16.16
2017-09-18T08:45:16.945Z,16.11
2017-09-18T08:46:30.461Z,16.07
2017-09-18T08:47:44.058Z,16.04
2017-09-18T08:48:57.859Z,16.02
2017-09-18T08:50:11.415Z,16.02
2017-09-18T08:51:25.274Z,16.01
2017-09-18T08:52:38.811Z,16.02
2017-09-18T08:53:52.327Z,16.05
2017-09-18T08:55:07.208Z,16.09
2017-09-18T08:56:20.818Z,16.11
2017-09-18T08:57:34.746Z,16.1
2017-09-18T08:58:48.284Z,16.05
2017-09-18T09:00:02.043Z,16
2017-09-18T09:01:16.279Z,15.98
2017-09-18T09:02:30.073Z,15.96
2017-09-18T09:03:43.687Z,15.96
2017-09-18T09:04:57.570Z,15.98
2017-09-18T09:06:11.124Z,16.01
2017-09-18T09:07:25.321Z,16.03
2017-09-18T09:08:38.877Z,16.08
2017-09-18T09:09:52.401Z,16.14
2017-09-18T09:11:06.034Z,16.18
2017-09-18T09:12:19.616Z,16.26
2017-09-18T09:13:33.631Z,16.34
2017-09-18T09:14:47.156Z,16.38
2017-09-18T09:16:00.704Z,16.4
2017-09-18T09:17:14.377Z,16.43
2017-09-18T09:18:28.011Z,16.46
2017-09-18T09:19:41.961Z,16.49
2017-09-18T09:20:55.508Z,16.51
2017-09-18T09:22:10.034Z,16.57
2017-09-18T09:23:23.559Z,16.63
2017-09-18T09:24:37.226Z,16.73
2017-09-18T09:25:51.038Z,16.89
2017-09-18T09:27:04.895Z,17.07
2017-09-18T09:28:18.403Z,17.22
2017-09-18T09:29:31.990Z,17.33
2017-09-18T09:30:45.702Z,17.39
2017-09-18T09:31:59.844Z,17.45
2017-09-18T09:33:13.784Z,17.5
2017-09-18T09:34:27.355Z,17.59
2017-09-18T09:35:41.445Z,17.69
2017-09-18T09:36:54.984Z,17.77
2017-09-18T09:38:08.929Z,17.84
2017-09-18T09:39:22.478Z,17.88
2017-09-18T09:40:36.062Z,17.9
2017-09-18T09:41:50.163Z,17.83
2017-09-18T09:43:03.944Z,17.76
2017-09-18T09:44:18.841Z,17.65
2017-09-18T09:45:32.377Z,17.52
2017-09-18T09:46:45.941Z,17.41
2017-09-18T09:47:59.511Z,17.28
2017-09-18T09:49:13.453Z,17.17
2017-09-18T09:50:27.356Z,17.1
2017-09-18T09:51:40.901Z,17.02
2017-09-18T09:52:54.737Z,16.98
2017-09-18T09:54:08.279Z,16.98
2017-09-18T09:55:22.011Z,17
2017-09-18T09:56:35.852Z,17.06
2017-09-18T09:57:49.588Z,17.09
2017-09-18T09:59:03.429Z,17.16
2017-09-18T10:00:16.950Z,17.26
2017-09-18T10:01:30.567Z,17.37
2017-09-18T10:02:44.724Z,17.44
2017-09-18T10:03:58.266Z,17.49
2017-09-18T10:05:12.008Z,17.54
2017-09-18T10:06:25.957Z,17.58
2017-09-18T10:07:40.226Z,17.64
2017-09-18T10:08:54.455Z,17.7
2017-09-18T10:10:08.114Z,17.75
2017-09-18T10:11:21.698Z,17.79
2017-09-18T10:12:35.336Z,17.81
2017-09-18T10:13:49.081Z,17.79
2017-09-18T10:15:02.925Z,17.74
2017-09-18T10:16:16.697Z,17.69
2017-09-18T10:17:30.185Z,17.67
2017-09-18T10:18:44.746Z,17.66
2017-09-18T10:19:59.070Z,17.66
2017-09-18T10:21:12.983Z,17.65
2017-09-18T10:22:26.583Z,17.67
2017-09-18T10:23:40.457Z,17.69
2017-09-18T10:24:54.257Z,17.72
2017-09-18T10:26:08.220Z,17.76
2017-09-18T10:27:22.298Z,17.73
2017-09-18T10:28:36.132Z,17.7
2017-09-18T10:29:49.667Z,17.73
2017-09-18T10:31:03.201Z,17.78
2017-09-18T10:32:16.706Z,17.81
2017-09-18T10:33:30.582Z,17.84
2017-09-18T10:34:44.320Z,17.87
2017-09-18T10:35:57.976Z,17.86
2017-09-18T10:37:11.716Z,17.85
2017-09-18T10:38:25.246Z,17.81
2017-09-18T10:39:39.080Z,17.76
2017-09-18T10:40:53.097Z,17.73
2017-09-18T10:42:06.608Z,17.71
2017-09-18T10:43:20.165Z,17.72
2017-09-18T10:44:34.017Z,17.74
2017-09-18T10:45:47.860Z,17.77
2017-09-18T10:47:01.393Z,17.8
2017-09-18T10:48:15.404Z,17.83
2017-09-18T10:49:28.945Z,17.86
2017-09-18T10:50:42.843Z,17.87
2017-09-18T10:51:56.723Z,17.88
2017-09-18T10:53:11.206Z,17.91
2017-09-18T10:54:25.958Z,17.91
2017-09-18T10:55:45.740Z,17.91
2017-09-18T10:58:40.349Z,17.82
2017-09-18T11:00:04.958Z,17.78
2017-09-18T11:01:35.021Z,17.74
2017-09-18T11:03:00.204Z,17.69
2017-09-18T11:04:22.323Z,17.68
2017-09-18T11:05:50.319Z,17.69
2017-09-18T11:07:18.999Z,17.74
2017-09-18T11:08:47.176Z,17.84
2017-09-18T11:10:13.868Z,17.91
2017-09-18T11:11:35.409Z,18.01
2017-09-18T11:13:01.044Z,18.09
2017-09-18T11:14:29.287Z,18.13
2017-09-18T11:15:55.323Z,18.14
2017-09-18T11:17:21.679Z,18.13
2017-09-18T11:18:48.444Z,18.11
2017-09-18T11:20:14.517Z,18.06
2017-09-18T11:21:37.485Z,18.06
2017-09-18T11:22:57.347Z,18.12
2017-09-18T11:24:10.882Z,18.22
2017-09-18T11:25:24.457Z,18.32
2017-09-18T11:26:38.295Z,18.47
2017-09-18T11:27:51.888Z,18.63
2017-09-18T11:29:05.906Z,18.77
2017-09-18T11:30:19.431Z,18.85
2017-09-18T11:31:33.036Z,18.91
2017-09-18T11:32:47.818Z,18.94
2017-09-18T11:34:01.527Z,18.95
2017-09-18T11:35:15.075Z,18.96
2017-09-18T11:36:28.698Z,18.95
2017-09-18T11:37:42.338Z,18.99
2017-09-18T11:38:56.224Z,18.99
2017-09-18T11:40:11.227Z,18.98
2017-09-18T11:41:24.827Z,18.96
2017-09-18T11:42:38.852Z,18.94
2017-09-18T11:43:52.634Z,18.91
2017-09-18T11:45:07.141Z,18.9
2017-09-18T11:46:20.695Z,18.86
2017-09-18T11:47:34.825Z,18.79
2017-09-18T11:48:48.324Z,18.79
2017-09-18T11:50:01.877Z,18.82
2017-09-18T11:51:15.762Z,18.87
2017-09-18T11:52:29.318Z,18.98
2017-09-18T11:53:43.162Z,19.09
2017-09-18T11:54:56.664Z,19.2
2017-09-18T11:56:10.183Z,19.32
2017-09-18T11:57:24.009Z,19.47
2017-09-18T11:58:37.522Z,19.59
2017-09-18T11:59:51.150Z,19.65
2017-09-18T12:01:04.664Z,19.67
2017-09-18T12:02:18.547Z,19.63
2017-09-18T12:03:32.376Z,19.57
2017-09-18T12:04:46.211Z,19.51
2017-09-18T12:05:59.883Z,19.46
2017-09-18T12:07:13.472Z,19.41
2017-09-18T12:08:26.992Z,19.33
2017-09-18T12:09:40.821Z,19.21
2017-09-18T12:10:54.760Z,19.13
2017-09-18T12:12:08.268Z,19.07
2017-09-18T12:13:22.299Z,19.03
2017-09-18T12:14:35.815Z,18.95
2017-09-18T12:15:49.983Z,18.91
2017-09-18T12:17:03.709Z,18.9
2017-09-18T12:18:17.891Z,18.94
2017-09-18T12:19:31.410Z,18.98
2017-09-18T12:20:45.220Z,19.04
2017-09-18T12:22:00.332Z,19.09
2017-09-18T12:23:13.873Z,19.17
2017-09-18T12:24:27.560Z,19.23
2017-09-18T12:25:45.649Z,19.27
2017-09-18T12:26:59.164Z,19.32
2017-09-18T12:28:13.278Z,19.35
2017-09-18T12:29:27.637Z,19.33
2017-09-18T12:30:41.282Z,19.31
2017-09-18T12:31:55.199Z,19.27
2017-09-18T12:33:09.303Z,19.23
2017-09-18T12:34:23.289Z,19.22
2017-09-18T12:35:36.804Z,19.24
2017-09-18T12:36:50.680Z,19.27
2017-09-18T12:38:04.411Z,19.29
2017-09-18T12:39:18.713Z,19.32
2017-09-18T12:40:32.734Z,19.34
2017-09-18T12:41:46.272Z,19.34
2017-09-18T12:42:59.979Z,19.35
2017-09-18T12:44:14.356Z,19.34
2017-09-18T12:45:28.548Z,19.35
2017-09-18T12:46:42.415Z,19.36
2017-09-18T12:47:55.934Z,19.43
2017-09-18T12:49:09.912Z,19.52
2017-09-18T12:50:23.476Z,19.59
2017-09-18T12:51:37.359Z,19.69
2017-09-18T12:52:51.188Z,19.74
2017-09-18T12:54:04.869Z,19.84
2017-09-18T12:55:18.482Z,19.92
2017-09-18T12:56:31.997Z,20.02
2017-09-18T12:57:45.512Z,20.09
2017-09-18T12:58:59.373Z,20.18
2017-09-18T13:00:13.240Z,20.27
2017-09-18T13:01:27.359Z,20.33
2017-09-18T13:02:41.247Z,20.4
2017-09-18T13:03:54.801Z,20.45
2017-09-18T13:05:08.721Z,20.46
2017-09-18T13:06:22.245Z,20.42
2017-09-18T13:07:35.974Z,20.39
2017-09-18T13:08:49.540Z,20.33
2017-09-18T13:10:03.197Z,20.23
2017-09-18T13:11:17.216Z,20.16
2017-09-18T13:12:30.770Z,20.09
2017-09-18T13:13:44.533Z,20.01
2017-09-18T13:14:58.437Z,19.91
2017-09-18T13:16:11.953Z,19.84
2017-09-18T13:17:26.128Z,19.77
2017-09-18T13:18:39.849Z,19.67
2017-09-18T13:19:53.499Z,19.54
2017-09-18T13:21:07.248Z,19.44
2017-09-18T13:22:20.766Z,19.4
2017-09-18T13:23:34.761Z,19.38
2017-09-18T13:24:48.680Z,19.37
2017-09-18T13:26:02.405Z,19.43
2017-09-18T13:27:16.767Z,19.54
2017-09-18T13:28:30.344Z,19.68
2017-09-18T13:29:44.552Z,19.79
2017-09-18T13:30:58.444Z,19.83
2017-09-18T13:32:11.954Z,19.87
2017-09-18T13:33:25.710Z,19.96
2017-09-18T13:34:39.986Z,20.03
2017-09-18T13:35:54.076Z,20.05
2017-09-18T13:37:07.600Z,20.04
2017-09-18T13:38:21.162Z,20.01
2017-09-18T13:39:34.724Z,19.97
2017-09-18T13:40:48.347Z,19.96
2017-09-18T13:42:02.566Z,19.93
2017-09-18T13:43:16.249Z,19.86
2017-09-18T13:44:30.068Z,19.8
2017-09-18T13:45:43.609Z,19.71
2017-09-18T13:46:57.310Z,19.62
2017-09-18T13:48:12.060Z,19.51
2017-09-18T13:49:25.708Z,19.44
2017-09-18T13:50:39.269Z,19.37
2017-09-18T13:51:52.965Z,19.31
2017-09-18T13:53:06.573Z,19.32
2017-09-18T13:54:20.451Z,19.34
2017-09-18T13:55:33.957Z,19.34
2017-09-18T13:56:47.494Z,19.36
2017-09-18T13:58:01.190Z,19.43
2017-09-18T13:59:16.047Z,19.51
2017-09-18T14:00:29.913Z,19.58
2017-09-18T14:01:44.481Z,19.62
2017-09-18T14:02:58.653Z,19.65
2017-09-18T14:04:12.382Z,19.69
2017-09-18T14:05:26.024Z,19.69
2017-09-18T14:06:40.299Z,19.7
2017-09-18T14:07:53.820Z,19.74
2017-09-18T14:09:07.449Z,19.78
2017-09-18T14:10:21.050Z,19.79
2017-09-18T14:11:35.256Z,19.8
2017-09-18T14:12:49.205Z,19.78
2017-09-18T14:14:02.791Z,19.74
2017-09-18T14:15:16.631Z,19.7
2017-09-18T14:16:30.877Z,19.66
2017-09-18T14:17:44.513Z,19.64
2017-09-18T14:18:58.587Z,19.61
2017-09-18T14:20:12.133Z,19.63
2017-09-18T14:21:26.157Z,19.68
2017-09-18T14:22:39.764Z,19.7
2017-09-18T14:23:53.336Z,19.73
2017-09-18T14:25:07.250Z,19.76
2017-09-18T14:26:20.822Z,19.78
2017-09-18T14:27:34.554Z,19.79
2017-09-18T14:28:48.252Z,19.81
2017-09-18T14:30:01.860Z,19.78
2017-09-18T14:31:16.430Z,19.72
2017-09-18T14:32:30.085Z,19.64
2017-09-18T14:33:49.895Z,19.57
2017-09-18T14:35:03.520Z,19.46
2017-09-18T14:36:17.415Z,19.37
2017-09-18T14:37:31.272Z,19.33
2017-09-18T14:38:44.924Z,19.33
2017-09-18T14:39:58.498Z,19.37
2017-09-18T14:41:12.409Z,19.43
2017-09-18T14:42:25.946Z,19.51
2017-09-18T14:43:40.107Z,19.58
2017-09-18T14:44:53.960Z,19.66
2017-09-18T14:46:07.466Z,19.73
2017-09-18T14:47:23.858Z,19.81
2017-09-18T14:48:40.595Z,19.85
2017-09-18T14:49:56.619Z,19.86
2017-09-18T14:51:17.565Z,19.88
2017-09-18T14:52:41.828Z,19.89
2017-09-18T14:54:03.687Z,19.86
2017-09-18T14:55:25.758Z,19.82
2017-09-18T14:56:48.799Z,19.75
2017-09-18T14:58:12.992Z,19.69
2017-09-18T14:59:44.875Z,19.64
2017-09-18T15:01:11.402Z,19.57
2017-09-18T15:02:40.562Z,19.56
2017-09-18T15:04:03.598Z,19.52
2017-09-18T15:05:17.543Z,19.49
2017-09-18T15:06:32.000Z,19.47
2017-09-18T15:07:46.337Z,19.45
2017-09-18T15:09:00.042Z,19.44
2017-09-18T15:10:13.916Z,19.4
2017-09-18T15:11:27.687Z,19.39
2017-09-18T15:12:41.741Z,19.38
2017-09-18T15:13:56.712Z,19.35
2017-09-18T15:15:14.731Z,19.33
2017-09-18T15:16:28.224Z,19.35
2017-09-18T15:17:41.704Z,19.35
2017-09-18T15:18:55.734Z,19.33
2017-09-18T15:20:09.270Z,19.3
2017-09-18T15:21:22.854Z,19.26
2017-09-18T15:22:36.367Z,19.25
2017-09-18T15:23:49.958Z,19.2
2017-09-18T15:25:04.399Z,19.15
2017-09-18T15:26:18.442Z,19.07
2017-09-18T15:27:32.080Z,19.01
2017-09-18T15:28:46.916Z,18.95
2017-09-18T15:30:00.503Z,18.9
2017-09-18T15:31:14.574Z,18.87
2017-09-18T15:32:28.295Z,18.83
2017-09-18T15:33:41.916Z,18.81
2017-09-18T15:34:55.914Z,18.8
2017-09-18T15:36:09.486Z,18.79
2017-09-18T15:37:23.878Z,18.76
2017-09-18T15:38:37.751Z,18.75
2017-09-18T15:39:52.181Z,18.75
2017-09-18T15:41:05.936Z,18.73
2017-09-18T15:42:19.549Z,18.73
2017-09-18T15:43:33.703Z,18.73
2017-09-18T15:44:47.609Z,18.73
2017-09-18T15:46:01.656Z,18.73
2017-09-18T15:47:15.486Z,18.74
2017-09-18T15:48:29.649Z,18.73
2017-09-18T15:49:44.046Z,18.75
2017-09-18T15:50:58.120Z,18.74
2017-09-18T15:52:11.665Z,18.74
2017-09-18T15:53:25.204Z,18.75
2017-09-18T15:54:38.848Z,18.75
2017-09-18T15:55:52.544Z,18.73
2017-09-18T15:57:06.736Z,18.73
2017-09-18T15:58:20.613Z,18.68
2017-09-18T15:59:35.159Z,18.63
2017-09-18T16:00:48.657Z,18.58
2017-09-18T16:02:02.631Z,18.54
2017-09-18T16:03:16.165Z,18.5
2017-09-18T16:04:29.834Z,18.48
2017-09-18T16:05:43.923Z,18.46
2017-09-18T16:06:57.436Z,18.45
2017-09-18T16:08:11.394Z,18.45
2017-09-18T16:09:24.990Z,18.44
2017-09-18T16:10:39.249Z,18.44
2017-09-18T16:11:52.926Z,18.44
2017-09-18T16:13:06.786Z,18.47
2017-09-18T16:14:21.707Z,18.5